Time;durP1;ratioP1;P1;durP2;ratioP2;P2;SDS_P1;SDS_P2;PMS_P1;PMS_P2;Temp;Humidity;BMP_temperature;BMP_pressure;BME280_temperature;BME280_humidity;BME280_pressure;Samples;Min_cycle;Max_cycle;Signal;HPM_P1;HPM_P2
2023/02/14 00:02:03;;;;;;;3.45;2.25;;;;;;;;;;5067753;28;20017;-48
2023/02/14 00:04:29;;;;;;;4.38;2.17;;;;;;;;;;5071205;28;20495;-47
2023/02/14 00:06:55;;;;;;;3.20;2.25;;;;;;;;;;5072476;28;20032;-46
2023/02/14 00:09:21;;;;;;;3.13;2.00;;;;;;;;;;5071159;28;20405;-47
2023/02/14 00:11:47;;;;;;;3.47;2.63;;;;;;;;;;5071509;28;20029;-48
2023/02/14 00:16:58;;;;;;;3.15;2.10;;;;;;;;;;5072439;28;20097;-46
2023/02/14 00:19:24;;;;;;;3.35;2.33;;;;;;;;;;5070451;28;20024;-45
2023/02/14 00:21:50;;;;;;;3.05;2.00;;;;;;;;;;5071899;28;20095;-48
2023/02/14 00:24:20;;;;;;;2.88;2.28;;;;;;;;;;5067367;28;20083;-46
2023/02/14 00:26:46;;;;;;;2.83;1.98;;;;;;;;;;5070230;28;20016;-45
2023/02/14 00:29:17;;;;;;;2.45;1.75;;;;;;;;;;5071429;28;20056;-44
2023/02/14 00:31:44;;;;;;;3.58;2.00;;;;;;;;;;5071314;28;20067;-47
2023/02/14 00:34:10;;;;;;;3.20;2.05;;;;;;;;;;5053582;28;20052;-49
2023/02/14 00:36:37;;;;;;;3.30;2.20;;;;;;;;;;5066231;28;20035;-48
2023/02/14 00:39:03;;;;;;;5.97;2.38;;;;;;;;;;5070803;28;20099;-44
2023/02/14 00:41:30;;;;;;;3.53;2.20;;;;;;;;;;5070679;28;20013;-48
2023/02/14 00:43:56;;;;;;;4.22;2.40;;;;;;;;;;5071087;28;20044;-46
2023/02/14 00:46:22;;;;;;;3.88;2.30;;;;;;;;;;5071579;28;20052;-47
2023/02/14 00:48:48;;;;;;;2.45;1.88;;;;;;;;;;5070514;28;20086;-45
2023/02/14 00:51:15;;;;;;;4.38;1.92;;;;;;;;;;5071343;28;20028;-46
2023/02/14 00:53:41;;;;;;;4.15;2.60;;;;;;;;;;5070193;28;20025;-46
2023/02/14 00:56:07;;;;;;;3.58;2.17;;;;;;;;;;5071395;28;20150;-48
2023/02/14 00:58:33;;;;;;;2.78;2.03;;;;;;;;;;5069832;28;20028;-45
2023/02/14 01:00:59;;;;;;;4.10;2.40;;;;;;;;;;5071178;28;20110;-50
2023/02/14 01:03:25;;;;;;;4.22;2.45;;;;;;;;;;5063756;28;20043;-44
2023/02/14 01:05:52;;;;;;;3.33;2.20;;;;;;;;;;5070945;28;20025;-46
2023/02/14 01:08:18;;;;;;;3.53;2.00;;;;;;;;;;5071154;28;20428;-49
2023/02/14 01:10:44;;;;;;;3.20;2.38;;;;;;;;;;5064775;28;20123;-47
2023/02/14 01:13:10;;;;;;;2.92;2.17;;;;;;;;;;5071175;28;20044;-48
2023/02/14 01:15:40;;;;;;;3.75;2.38;;;;;;;;;;5070121;28;20103;-50
2023/02/14 01:18:06;;;;;;;2.60;1.92;;;;;;;;;;5071486;28;20052;-49
2023/02/14 01:20:32;;;;;;;3.90;2.17;;;;;;;;;;5069371;28;20021;-45
2023/02/14 01:22:58;;;;;;;2.92;2.25;;;;;;;;;;5070823;28;20032;-46
2023/02/14 01:25:24;;;;;;;3.40;2.30;;;;;;;;;;5069776;28;20020;-45
2023/02/14 01:27:50;;;;;;;3.00;2.42;;;;;;;;;;5070246;28;20090;-46
2023/02/14 01:30:16;;;;;;;2.95;1.90;;;;;;;;;;5069680;28;20031;-45
2023/02/14 01:32:42;;;;;;;2.83;1.92;;;;;;;;;;5070121;28;20037;-47
2023/02/14 01:35:09;;;;;;;3.17;2.30;;;;;;;;;;5070631;28;20035;-45
2023/02/14 01:37:35;;;;;;;3.05;2.45;;;;;;;;;;5069137;28;20377;-48
2023/02/14 01:40:01;;;;;;;3.55;2.40;;;;;;;;;;5070645;28;20020;-46
2023/02/14 01:42:27;;;;;;;2.80;2.00;;;;;;;;;;5051727;28;20020;-44
2023/02/14 01:44:58;;;;;;;3.42;2.25;;;;;;;;;;5066153;28;20099;-45
2023/02/14 01:47:26;;;;;;;2.25;1.88;;;;;;;;;;5070341;28;20024;-43
2023/02/14 01:49:53;;;;;;;2.83;2.17;;;;;;;;;;5070548;28;20063;-46
2023/02/14 01:52:23;;;;;;;3.35;2.15;;;;;;;;;;5070218;28;20032;-48
2023/02/14 01:54:52;;;;;;;2.50;2.15;;;;;;;;;;5069887;28;20020;-46
2023/02/14 01:57:20;;;;;;;3.22;2.33;;;;;;;;;;5070848;28;20051;-47
2023/02/14 01:59:51;;;;;;;3.50;2.00;;;;;;;;;;5069454;28;20027;-49
2023/02/14 02:02:22;;;;;;;2.67;1.85;;;;;;;;;;5070782;28;20166;-48
2023/02/14 02:04:48;;;;;;;3.25;2.03;;;;;;;;;;5080294;28;20040;-45
2023/02/14 02:07:17;;;;;;;2.97;2.40;;;;;;;;;;5070253;28;20043;-48
2023/02/14 02:09:46;;;;;;;2.50;1.92;;;;;;;;;;5068936;28;20044;-47
2023/02/14 02:12:12;;;;;;;3.63;2.15;;;;;;;;;;5070514;28;20043;-49
2023/02/14 02:14:39;;;;;;;2.47;1.98;;;;;;;;;;5068904;28;20032;-47
2023/02/14 02:17:11;;;;;;;3.38;2.25;;;;;;;;;;5065734;28;20437;-47
2023/02/14 02:19:46;;;;;;;3.97;2.55;;;;;;;;;;5069462;28;20097;-45
2023/02/14 02:22:31;;;;;;;3.00;2.13;;;;;;;;;;5070199;28;20437;-48
2023/02/14 02:24:57;;;;;;;3.33;2.40;;;;;;;;;;5066294;28;20036;-46
2023/02/14 02:27:26;;;;;;;3.17;2.30;;;;;;;;;;5070096;28;20389;-44
2023/02/14 02:29:55;;;;;;;3.13;2.38;;;;;;;;;;5070254;28;20056;-45
2023/02/14 02:32:34;;;;;;;3.72;2.50;;;;;;;;;;5070250;28;20500;-45
2023/02/14 02:35:18;;;;;;;3.83;2.03;;;;;;;;;;5069966;28;20122;-49
2023/02/14 02:37:44;;;;;;;3.85;2.33;;;;;;;;;;5066973;28;20627;-49
2023/02/14 02:40:29;;;;;;;2.90;2.25;;;;;;;;;;5070258;28;20036;-46
2023/02/14 02:43:13;;;;;;;3.35;2.40;;;;;;;;;;5068551;28;20359;-47
2023/02/14 02:48:47;;;;;;;2.70;2.00;;;;;;;;;;5072523;28;20047;-46
2023/02/14 02:54:13;;;;;;;3.05;2.10;;;;;;;;;;5073503;28;20428;-46
2023/02/14 02:56:49;;;;;;;3.83;2.40;;;;;;;;;;5073014;28;20032;-50
2023/02/14 02:59:23;;;;;;;3.10;2.35;;;;;;;;;;5073281;28;20020;-46
2023/02/14 03:01:55;;;;;;;2.83;2.03;;;;;;;;;;5072926;28;20032;-46
2023/02/14 03:09:52;;;;;;;2.88;2.33;;;;;;;;;;5072422;28;20089;-50
2023/02/14 03:12:29;;;;;;;2.30;1.80;;;;;;;;;;5073292;28;20151;-49
2023/02/14 03:15:04;;;;;;;3.15;2.25;;;;;;;;;;5072919;28;20052;-47
2023/02/14 03:17:39;;;;;;;2.50;2.30;;;;;;;;;;5066921;28;20037;-48
2023/02/14 03:20:17;;;;;;;2.80;1.95;;;;;;;;;;5063806;28;20060;-49
2023/02/14 03:22:48;;;;;;;3.53;2.22;;;;;;;;;;5066205;28;20021;-47
2023/02/14 03:25:17;;;;;;;4.03;2.20;;;;;;;;;;5067215;28;20025;-45
2023/02/14 03:27:49;;;;;;;3.03;1.70;;;;;;;;;;5072211;28;20287;-48
2023/02/14 03:30:17;;;;;;;3.13;2.30;;;;;;;;;;5072865;28;20025;-48
2023/02/14 03:32:50;;;;;;;3.28;2.10;;;;;;;;;;5071830;28;20602;-46
2023/02/14 03:35:24;;;;;;;2.63;1.70;;;;;;;;;;5072569;28;20031;-45
2023/02/14 03:38:08;;;;;;;3.63;2.50;;;;;;;;;;5072532;28;20025;-45
2023/02/14 03:40:37;;;;;;;2.70;2.20;;;;;;;;;;5071632;28;20128;-46
2023/02/14 03:43:07;;;;;;;2.38;1.75;;;;;;;;;;5069653;28;20423;-46
2023/02/14 03:45:36;;;;;;;2.88;2.05;;;;;;;;;;5071909;28;20341;-48
2023/02/14 03:48:06;;;;;;;3.08;2.38;;;;;;;;;;5054426;28;20371;-47
2023/02/14 03:50:32;;;;;;;3.13;2.38;;;;;;;;;;5071460;28;20099;-48
2023/02/14 03:52:59;;;;;;;2.58;1.98;;;;;;;;;;5072080;28;20025;-46
2023/02/14 03:55:37;;;;;;;2.75;2.20;;;;;;;;;;5070927;28;20023;-44
2023/02/14 03:58:08;;;;;;;2.60;2.00;;;;;;;;;;5072449;28;20025;-46
2023/02/14 04:00:36;;;;;;;3.67;2.35;;;;;;;;;;5066824;28;20470;-49
2023/02/14 04:03:05;;;;;;;3.00;2.28;;;;;;;;;;5072210;28;20028;-46
2023/02/14 04:05:31;;;;;;;2.28;1.92;;;;;;;;;;5071203;28;20036;-47
2023/02/14 04:07:58;;;;;;;2.75;2.40;;;;;;;;;;5072222;28;20035;-47
2023/02/14 04:10:24;;;;;;;2.30;2.10;;;;;;;;;;5071716;28;20127;-44
2023/02/14 04:12:50;;;;;;;2.88;2.17;;;;;;;;;;5071994;28;20028;-46
2023/02/14 04:15:16;;;;;;;2.60;2.10;;;;;;;;;;5071302;28;20512;-46
2023/02/14 04:20:27;;;;;;;3.05;2.35;;;;;;;;;;5070999;28;20390;-45
2023/02/14 04:22:53;;;;;;;2.50;2.20;;;;;;;;;;5071970;28;20021;-46
2023/02/14 04:25:20;;;;;;;2.88;2.00;;;;;;;;;;5070609;28;20374;-49
2023/02/14 04:27:46;;;;;;;3.53;2.50;;;;;;;;;;5071014;28;20623;-46
2023/02/14 04:30:12;;;;;;;2.88;2.00;;;;;;;;;;5071443;28;20020;-46
2023/02/14 04:32:38;;;;;;;4.45;2.83;;;;;;;;;;5069243;28;20028;-47
2023/02/14 04:35:05;;;;;;;3.05;2.10;;;;;;;;;;5067942;28;20462;-45
2023/02/14 04:37:31;;;;;;;3.72;2.70;;;;;;;;;;5071002;28;20037;-48
2023/02/14 04:39:57;;;;;;;2.90;1.98;;;;;;;;;;5071034;28;20027;-45
2023/02/14 04:42:23;;;;;;;3.63;2.00;;;;;;;;;;5071659;28;20564;-44
2023/02/14 04:44:49;;;;;;;3.42;2.25;;;;;;;;;;5070395;28;20055;-50
2023/02/14 04:47:15;;;;;;;4.68;2.42;;;;;;;;;;5071502;28;20060;-46
2023/02/14 04:49:41;;;;;;;2.45;2.13;;;;;;;;;;5069973;28;20083;-45
2023/02/14 04:52:07;;;;;;;1.95;1.70;;;;;;;;;;5071535;28;20032;-45
2023/02/14 04:54:33;;;;;;;2.42;2.05;;;;;;;;;;5069897;28;20086;-49
2023/02/14 04:56:59;;;;;;;3.22;2.13;;;;;;;;;;5071428;28;20036;-48
2023/02/14 04:59:25;;;;;;;4.18;2.20;;;;;;;;;;5070739;28;20042;-44
2023/02/14 05:01:51;;;;;;;2.58;1.90;;;;;;;;;;5059412;28;20040;-47
2023/02/14 05:04:17;;;;;;;2.95;2.08;;;;;;;;;;5070264;28;20756;-47
2023/02/14 05:06:43;;;;;;;3.20;2.38;;;;;;;;;;5068061;28;20138;-50
2023/02/14 05:09:09;;;;;;;2.88;2.22;;;;;;;;;;5068299;28;20067;-48
2023/02/14 05:11:35;;;;;;;3.40;2.50;;;;;;;;;;5070382;28;20021;-46
2023/02/14 05:14:01;;;;;;;2.45;1.83;;;;;;;;;;5070773;28;20025;-46
2023/02/14 05:16:27;;;;;;;3.88;2.50;;;;;;;;;;5070280;28;20424;-44
2023/02/14 05:18:53;;;;;;;3.38;2.47;;;;;;;;;;5070422;28;20031;-47
2023/02/14 05:21:19;;;;;;;2.60;2.03;;;;;;;;;;5067829;28;20032;-47
2023/02/14 05:23:45;;;;;;;2.53;1.80;;;;;;;;;;5067288;28;20849;-44
2023/02/14 05:26:11;;;;;;;3.42;2.47;;;;;;;;;;5070544;28;20103;-48
2023/02/14 05:28:39;;;;;;;2.50;2.03;;;;;;;;;;5069457;28;20191;-46
2023/02/14 05:31:05;;;;;;;2.40;2.13;;;;;;;;;;5071017;28;20028;-46
2023/02/14 05:33:31;;;;;;;3.08;2.22;;;;;;;;;;5069859;28;20067;-47
2023/02/14 05:36:01;;;;;;;2.45;1.90;;;;;;;;;;5070906;28;20038;-45
2023/02/14 05:38:27;;;;;;;2.60;2.10;;;;;;;;;;5061897;28;20028;-46
2023/02/14 05:40:53;;;;;;;2.25;1.77;;;;;;;;;;5062801;28;20048;-48
2023/02/14 05:43:19;;;;;;;3.83;2.10;;;;;;;;;;5070174;28;20492;-50
2023/02/14 05:45:45;;;;;;;2.80;1.90;;;;;;;;;;5067911;28;20020;-48
2023/02/14 05:48:12;;;;;;;3.13;2.10;;;;;;;;;;5070641;28;20031;-50
2023/02/14 05:50:38;;;;;;;3.22;2.45;;;;;;;;;;5069586;28;20036;-47
2023/02/14 05:53:04;;;;;;;2.47;2.08;;;;;;;;;;5070841;28;20466;-46
2023/02/14 05:55:30;;;;;;;2.70;2.05;;;;;;;;;;5069652;28;20013;-47
2023/02/14 05:57:56;;;;;;;2.10;1.77;;;;;;;;;;5070245;28;20053;-49
2023/02/14 06:00:23;;;;;;;2.72;2.05;;;;;;;;;;5070161;28;20016;-48
2023/02/14 06:02:49;;;;;;;3.35;2.33;;;;;;;;;;5070238;28;20013;-48
2023/02/14 06:05:17;;;;;;;2.63;2.10;;;;;;;;;;5069804;28;20382;-51
2023/02/14 06:07:47;;;;;;;2.70;1.70;;;;;;;;;;5069883;28;20040;-47
2023/02/14 06:10:14;;;;;;;4.03;1.95;;;;;;;;;;5069727;28;20056;-47
2023/02/14 06:12:39;;;;;;;2.70;2.13;;;;;;;;;;5069834;28;20086;-47
2023/02/14 06:15:06;;;;;;;2.90;2.13;;;;;;;;;;5065120;28;20029;-47
2023/02/14 06:17:32;;;;;;;3.45;1.60;;;;;;;;;;5071997;28;20072;-47
2023/02/14 06:19:57;;;;;;;2.17;1.83;;;;;;;;;;5074076;28;20056;-46
2023/02/14 06:22:23;;;;;;;2.13;1.67;;;;;;;;;;5073697;28;20031;-47
2023/02/14 06:24:49;;;;;;;2.90;2.25;;;;;;;;;;5072131;28;20060;-47
2023/02/14 06:27:15;;;;;;;3.60;2.13;;;;;;;;;;5061028;28;20029;-47
2023/02/14 06:29:41;;;;;;;3.22;2.05;;;;;;;;;;5073207;28;20461;-47
2023/02/14 06:32:07;;;;;;;3.30;2.10;;;;;;;;;;5073500;28;20039;-46
2023/02/14 06:34:34;;;;;;;2.58;1.73;;;;;;;;;;5072813;28;20469;-46
2023/02/14 06:37:00;;;;;;;5.45;2.15;;;;;;;;;;5073868;28;20032;-50
2023/02/14 06:39:26;;;;;;;3.50;2.47;;;;;;;;;;5069470;28;20025;-47
2023/02/14 06:41:52;;;;;;;3.28;1.92;;;;;;;;;;5073040;28;20104;-50
2023/02/14 06:44:18;;;;;;;3.45;2.55;;;;;;;;;;5073719;28;20075;-48
2023/02/14 06:46:44;;;;;;;2.75;2.25;;;;;;;;;;5073742;28;20031;-47
2023/02/14 06:49:10;;;;;;;3.63;2.28;;;;;;;;;;5069055;28;20025;-50
2023/02/14 06:51:36;;;;;;;2.80;2.08;;;;;;;;;;5071456;28;20064;-47
2023/02/14 06:54:02;;;;;;;2.58;2.03;;;;;;;;;;5061865;28;20075;-50
2023/02/14 06:56:28;;;;;;;3.55;2.42;;;;;;;;;;5072403;28;20070;-48
2023/02/14 06:58:54;;;;;;;3.55;2.30;;;;;;;;;;5073445;28;20037;-49
2023/02/14 07:01:20;;;;;;;4.20;2.05;;;;;;;;;;5073199;28;20957;-50
2023/02/14 07:03:46;;;;;;;3.53;2.30;;;;;;;;;;5072529;28;20123;-47
2023/02/14 07:06:12;;;;;;;2.95;1.88;;;;;;;;;;5072997;28;20016;-49
2023/02/14 07:08:38;;;;;;;3.47;2.03;;;;;;;;;;5046728;28;20029;-51
2023/02/14 07:11:04;;;;;;;4.35;3.00;;;;;;;;;;5069970;28;20053;-50
2023/02/14 07:13:30;;;;;;;6.65;2.38;;;;;;;;;;5068175;28;20050;-50
2023/02/14 07:15:56;;;;;;;3.35;2.65;;;;;;;;;;5073290;28;20017;-50
2023/02/14 07:18:22;;;;;;;4.55;2.13;;;;;;;;;;5073272;28;20028;-52
2023/02/14 07:20:49;;;;;;;4.30;2.65;;;;;;;;;;5071745;28;20028;-50
2023/02/14 07:23:15;;;;;;;7.55;2.17;;;;;;;;;;5072476;28;20027;-47
2023/02/14 07:25:41;;;;;;;4.82;2.83;;;;;;;;;;5071129;28;20024;-48
2023/02/14 07:28:07;;;;;;;4.25;2.40;;;;;;;;;;5069375;28;20278;-47
2023/02/14 07:30:33;;;;;;;4.43;2.35;;;;;;;;;;5072674;28;20048;-49
2023/02/14 07:32:59;;;;;;;6.30;2.08;;;;;;;;;;5068253;28;20055;-47
2023/02/14 07:35:25;;;;;;;4.85;2.38;;;;;;;;;;5071787;28;20028;-48
2023/02/14 07:37:51;;;;;;;4.55;2.92;;;;;;;;;;5071681;28;20025;-50
2023/02/14 07:40:18;;;;;;;5.40;2.03;;;;;;;;;;5069326;28;20103;-48
2023/02/14 07:42:44;;;;;;;4.13;2.33;;;;;;;;;;5069908;28;20032;-48
2023/02/14 07:45:10;;;;;;;4.22;2.42;;;;;;;;;;5072006;28;20032;-48
2023/02/14 07:47:37;;;;;;;6.65;2.20;;;;;;;;;;5063982;28;20079;-49
2023/02/14 07:50:04;;;;;;;3.67;2.25;;;;;;;;;;5072024;28;20025;-51
2023/02/14 07:52:30;;;;;;;4.20;2.60;;;;;;;;;;5066809;28;20056;-46
2023/02/14 07:54:56;;;;;;;3.30;2.10;;;;;;;;;;5071940;28;20021;-49
2023/02/14 07:57:22;;;;;;;6.47;2.70;;;;;;;;;;5071659;28;20095;-49
2023/02/14 07:59:47;;;;;;;4.43;2.78;;;;;;;;;;5069726;28;20041;-49
2023/02/14 08:02:13;;;;;;;4.95;2.55;;;;;;;;;;5072502;28;20063;-49
2023/02/14 08:04:39;;;;;;;3.97;2.67;;;;;;;;;;5069798;28;20469;-47
2023/02/14 08:07:05;;;;;;;5.43;2.30;;;;;;;;;;5068323;28;20091;-47
2023/02/14 08:09:31;;;;;;;5.18;2.78;;;;;;;;;;5070529;28;20571;-48
2023/02/14 08:14:43;;;;;;;5.25;2.28;;;;;;;;;;5070345;28;20039;-48
2023/02/14 08:17:10;;;;;;;4.63;2.47;;;;;;;;;;5064028;28;20033;-48
2023/02/14 08:19:36;;;;;;;5.10;2.35;;;;;;;;;;5071179;28;20044;-46
2023/02/14 08:22:03;;;;;;;4.07;2.42;;;;;;;;;;5071972;28;20027;-48
2023/02/14 08:24:29;;;;;;;6.07;2.55;;;;;;;;;;5066074;28;20029;-51
2023/02/14 08:26:55;;;;;;;6.85;2.40;;;;;;;;;;5071876;28;20043;-47
2023/02/14 08:29:21;;;;;;;3.35;2.65;;;;;;;;;;5071541;28;20385;-51
2023/02/14 08:31:47;;;;;;;4.90;2.45;;;;;;;;;;5068247;28;20099;-48
2023/02/14 08:34:14;;;;;;;5.15;3.45;;;;;;;;;;5070973;28;20029;-49
2023/02/14 08:36:40;;;;;;;2.85;2.05;;;;;;;;;;5070991;28;20024;-47
2023/02/14 08:39:06;;;;;;;3.88;1.92;;;;;;;;;;5066194;28;20103;-47
2023/02/14 08:41:33;;;;;;;5.50;2.53;;;;;;;;;;5071074;28;20043;-47
2023/02/14 08:43:59;;;;;;;4.65;2.35;;;;;;;;;;5070516;28;20390;-47
2023/02/14 08:46:26;;;;;;;3.53;2.53;;;;;;;;;;5071342;28;20024;-47
2023/02/14 08:48:53;;;;;;;5.93;2.33;;;;;;;;;;5060673;28;20036;-49
2023/02/14 08:51:19;;;;;;;3.45;2.42;;;;;;;;;;5070926;28;20029;-51
2023/02/14 08:53:45;;;;;;;3.38;2.35;;;;;;;;;;5070112;28;20021;-49
2023/02/14 08:56:12;;;;;;;2.92;2.05;;;;;;;;;;5071553;28;20363;-48
2023/02/14 08:58:39;;;;;;;4.78;2.58;;;;;;;;;;5070110;28;20048;-47
2023/02/14 09:01:08;;;;;;;5.55;2.90;;;;;;;;;;5071329;28;20104;-46
2023/02/14 09:03:34;;;;;;;6.40;2.60;;;;;;;;;;5070537;28;20104;-50
2023/02/14 09:06:04;;;;;;;4.68;3.00;;;;;;;;;;5067282;28;20448;-50
2023/02/14 09:08:30;;;;;;;3.33;2.38;;;;;;;;;;5070795;28;20082;-49
2023/02/14 09:10:56;;;;;;;4.15;2.50;;;;;;;;;;5070861;28;20054;-48
2023/02/14 09:13:23;;;;;;;2.88;1.90;;;;;;;;;;5071696;28;20112;-46
2023/02/14 09:15:49;;;;;;;3.95;2.72;;;;;;;;;;5069981;28;20078;-48
2023/02/14 09:18:15;;;;;;;3.53;2.45;;;;;;;;;;5071136;28;20436;-51
2023/02/14 09:20:43;;;;;;;3.58;2.35;;;;;;;;;;5067086;28;20013;-49
2023/02/14 09:23:09;;;;;;;3.08;2.13;;;;;;;;;;5063741;28;20082;-48
2023/02/14 09:25:35;;;;;;;2.95;2.28;;;;;;;;;;5069427;28;20473;-51
2023/02/14 09:28:01;;;;;;;3.10;2.45;;;;;;;;;;5059357;28;20082;-48
2023/02/14 09:30:27;;;;;;;3.78;2.55;;;;;;;;;;5069644;28;20111;-46
2023/02/14 09:32:53;;;;;;;3.53;2.50;;;;;;;;;;5071410;28;20033;-48
2023/02/14 09:38:19;;;;;;;3.47;2.33;;;;;;;;;;5070960;28;20032;-49
2023/02/14 09:40:47;;;;;;;3.47;2.20;;;;;;;;;;5065590;28;20021;-49
2023/02/14 09:43:13;;;;;;;2.92;2.22;;;;;;;;;;5071153;28;20404;-49
2023/02/14 09:45:39;;;;;;;3.40;2.35;;;;;;;;;;5069732;28;20031;-46
2023/02/14 09:48:08;;;;;;;4.40;3.20;;;;;;;;;;5067127;28;20028;-49
2023/02/14 09:50:34;;;;;;;6.03;2.53;;;;;;;;;;5069997;28;20040;-46
2023/02/14 09:53:02;;;;;;;3.28;2.63;;;;;;;;;;5073893;28;20029;-50
2023/02/14 09:55:35;;;;;;;3.70;2.50;;;;;;;;;;5073672;28;20067;-47
2023/02/14 09:58:05;;;;;;;4.07;2.35;;;;;;;;;;5074528;28;20078;-46
2023/02/14 10:00:34;;;;;;;4.85;2.35;;;;;;;;;;5073611;28;20482;-48
2023/02/14 10:03:19;;;;;;;6.07;2.40;;;;;;;;;;5060032;28;20037;-47
2023/02/14 10:05:49;;;;;;;4.93;2.92;;;;;;;;;;5073907;28;20104;-51
2023/02/14 10:08:15;;;;;;;3.22;2.17;;;;;;;;;;5074602;28;20037;-50
2023/02/14 10:10:42;;;;;;;3.83;2.53;;;;;;;;;;5073178;28;20073;-48
2023/02/14 10:13:17;;;;;;;3.78;2.22;;;;;;;;;;5070734;28;20096;-47
2023/02/14 10:15:45;;;;;;;4.35;2.80;;;;;;;;;;5073543;28;20949;-49
2023/02/14 10:18:16;;;;;;;3.33;2.60;;;;;;;;;;5074463;28;20111;-47
2023/02/14 10:20:53;;;;;;;5.18;2.72;;;;;;;;;;5073408;28;20127;-48
2023/02/14 10:23:34;;;;;;;5.03;2.63;;;;;;;;;;5074392;28;20077;-50
2023/02/14 10:26:01;;;;;;;4.22;2.50;;;;;;;;;;5074312;28;20033;-48
2023/02/14 10:28:32;;;;;;;3.78;2.67;;;;;;;;;;5073462;28;20033;-49
2023/02/14 10:31:00;;;;;;;3.08;2.47;;;;;;;;;;5074234;28;20020;-47
2023/02/14 10:33:29;;;;;;;3.55;2.38;;;;;;;;;;5066119;28;20096;-47
2023/02/14 10:36:02;;;;;;;4.50;2.95;;;;;;;;;;5074244;28;20394;-51
2023/02/14 10:38:34;;;;;;;3.35;2.42;;;;;;;;;;5073168;28;20025;-49
2023/02/14 10:41:00;;;;;;;;;;;;;;;;;;5074436;28;20110;-51
2023/02/14 10:43:26;;;;;;;3.53;2.45;;;;;;;;;;5073706;28;19912;-47
2023/02/14 10:46:12;;;;;;;4.65;2.55;;;;;;;;;;5073644;28;20457;-51
2023/02/14 10:48:38;;;;;;;2.58;2.00;;;;;;;;;;5071476;28;20093;-49
2023/02/14 10:51:18;;;;;;;3.05;2.47;;;;;;;;;;5073690;28;20024;-46
2023/02/14 10:54:02;;;;;;;4.63;3.20;;;;;;;;;;5073203;28;20600;-47
2023/02/14 10:56:34;;;;;;;3.92;2.50;;;;;;;;;;5072331;28;20057;-48
2023/02/14 10:59:07;;;;;;;4.70;2.40;;;;;;;;;;5073053;28;20374;-51
2023/02/14 11:01:34;;;;;;;6.72;2.65;;;;;;;;;;5073294;28;20050;-52
2023/02/14 11:04:05;;;;;;;4.68;2.60;;;;;;;;;;5072862;28;20059;-50
2023/02/14 11:06:31;;;;;;;3.67;2.58;;;;;;;;;;5069988;28;20027;-48
2023/02/14 11:08:57;;;;;;;3.55;2.58;;;;;;;;;;5065415;28;20421;-48
2023/02/14 11:11:32;;;;;;;3.58;2.50;;;;;;;;;;5073252;28;20042;-49
2023/02/14 11:13:58;;;;;;;4.38;2.22;;;;;;;;;;5063030;28;20029;-47
2023/02/14 11:16:34;;;;;;;3.42;2.40;;;;;;;;;;5070667;28;20028;-48
2023/02/14 11:19:08;;;;;;;3.03;1.85;;;;;;;;;;5072994;28;20046;-47
2023/02/14 11:21:39;;;;;;;5.00;2.40;;;;;;;;;;5068542;28;20012;-50
2023/02/14 11:24:16;;;;;;;3.20;2.25;;;;;;;;;;5063876;28;20381;-47
2023/02/14 11:26:45;;;;;;;4.82;2.58;;;;;;;;;;5072157;28;20466;-48
2023/02/14 11:29:12;;;;;;;3.28;2.70;;;;;;;;;;5072611;28;20112;-49
2023/02/14 11:31:39;;;;;;;3.92;2.60;;;;;;;;;;5072755;28;20028;-47
2023/02/14 11:34:26;;;;;;;3.72;2.67;;;;;;;;;;5072604;28;20016;-48
2023/02/14 11:36:52;;;;;;;3.85;2.20;;;;;;;;;;5058195;28;20055;-49
2023/02/14 11:39:29;;;;;;;5.60;2.50;;;;;;;;;;5071574;28;20029;-49
2023/02/14 11:41:56;;;;;;;3.88;2.42;;;;;;;;;;5073326;28;20021;-50
2023/02/14 11:44:23;;;;;;;3.33;2.50;;;;;;;;;;5072363;28;20025;-48
2023/02/14 11:46:50;;;;;;;2.90;2.17;;;;;;;;;;5072004;28;20021;-48
2023/02/14 11:49:27;;;;;;;3.90;2.50;;;;;;;;;;5071829;28;20059;-47
2023/02/14 11:51:54;;;;;;;2.97;1.95;;;;;;;;;;5072441;28;20029;-47
2023/02/14 11:54:26;;;;;;;3.15;2.33;;;;;;;;;;5072277;28;20021;-50
2023/02/14 11:56:52;;;;;;;4.22;2.50;;;;;;;;;;5069668;28;20082;-49
2023/02/14 11:59:39;;;;;;;4.75;2.35;;;;;;;;;;5072337;28;20082;-47
2023/02/14 12:02:21;;;;;;;4.35;2.00;;;;;;;;;;5058346;28;20112;-51
2023/02/14 12:04:49;;;;;;;3.00;2.40;;;;;;;;;;5068762;28;20420;-47
2023/02/14 12:07:25;;;;;;;5.40;2.47;;;;;;;;;;5071233;28;20135;-50
2023/02/14 12:10:24;;;;;;;2.97;2.15;;;;;;;;;;5060237;28;20063;-50
2023/02/14 12:12:54;;;;;;;3.72;2.10;;;;;;;;;;5013808;28;20124;-49
2023/02/14 12:15:26;;;;;;;5.00;2.78;;;;;;;;;;5071278;28;20076;-49
2023/02/14 12:17:56;;;;;;;4.78;2.50;;;;;;;;;;5072242;28;20027;-52
2023/02/14 12:20:25;;;;;;;3.60;2.47;;;;;;;;;;5071643;28;20017;-47
2023/02/14 12:22:51;;;;;;;4.78;2.35;;;;;;;;;;5072212;28;20470;-48
2023/02/14 12:25:24;;;;;;;3.45;2.33;;;;;;;;;;5071598;28;20083;-50
2023/02/14 12:28:06;;;;;;;4.07;2.40;;;;;;;;;;5071401;28;20064;-47
2023/02/14 12:30:33;;;;;;;7.03;2.67;;;;;;;;;;5068475;28;20056;-49
2023/02/14 12:33:00;;;;;;;4.18;2.67;;;;;;;;;;5072006;28;20033;-49
2023/02/14 12:35:44;;;;;;;3.40;2.33;;;;;;;;;;5066659;28;20017;-46
2023/02/14 12:38:49;;;;;;;2.50;2.00;;;;;;;;;;5071323;28;20024;-48
2023/02/14 12:41:21;;;;;;;3.53;2.33;;;;;;;;;;4999427;28;20030;-47
2023/02/14 12:43:49;;;;;;;;;;;;;;;;;;5005180;28;20742;-48
2023/02/14 12:46:41;;;;;;;4.28;2.35;;;;;;;;;;4998841;28;20291;-48
2023/02/14 12:49:25;;;;;;;3.72;2.03;;;;;;;;;;4990674;28;20592;-47
2023/02/14 12:51:54;;;;;;;3.95;2.85;;;;;;;;;;5004097;28;20042;-50
2023/02/14 12:54:38;;;;;;;2.97;1.92;;;;;;;;;;4991403;28;20419;-47
2023/02/14 12:57:13;;;;;;;4.47;2.33;;;;;;;;;;4990179;28;20104;-48
2023/02/14 12:59:51;;;;;;;3.58;2.10;;;;;;;;;;4998188;28;20451;-48
2023/02/14 13:02:37;;;;;;;3.50;2.20;;;;;;;;;;5008609;28;20034;-47
2023/02/14 13:05:19;;;;;;;9.23;4.88;;;;;;;;;;4989791;28;20550;-46
2023/02/14 13:08:09;;;;;;;8.25;4.70;;;;;;;;;;4997708;28;20624;-47
2023/02/14 13:10:50;;;;;;;6.63;3.67;;;;;;;;;;4990221;28;20068;-49
2023/02/14 13:13:35;;;;;;;4.68;2.85;;;;;;;;;;5051499;28;20036;-48
2023/02/14 13:16:07;;;;;;;5.68;3.22;;;;;;;;;;5051008;28;20104;-49
2023/02/14 13:18:39;;;;;;;4.03;2.72;;;;;;;;;;5050196;28;20033;-47
2023/02/14 13:21:08;;;;;;;3.50;2.33;;;;;;;;;;5041546;28;20509;-50
2023/02/14 13:23:36;;;;;;;4.28;2.28;;;;;;;;;;5050152;28;20492;-45
2023/02/14 13:26:07;;;;;;;5.40;2.50;;;;;;;;;;5045398;28;20429;-47
2023/02/14 13:28:33;;;;;;;3.67;2.65;;;;;;;;;;5042745;28;20033;-47
2023/02/14 13:31:00;;;;;;;3.92;2.95;;;;;;;;;;5050776;28;20401;-48
2023/02/14 13:33:46;;;;;;;3.25;2.40;;;;;;;;;;5050910;28;20021;-47
2023/02/14 13:36:13;;;;;;;3.45;2.53;;;;;;;;;;5015719;28;20025;-49
2023/02/14 13:38:50;;;;;;;5.93;2.60;;;;;;;;;;5044326;28;20134;-49
2023/02/14 13:41:16;;;;;;;4.80;2.60;;;;;;;;;;5050913;28;20025;-47
2023/02/14 13:43:48;;;;;;;3.30;2.53;;;;;;;;;;5049960;28;20025;-47
2023/02/14 13:46:16;;;;;;;4.15;2.42;;;;;;;;;;5043846;28;20017;-47
2023/02/14 13:48:42;;;;;;;3.10;2.00;;;;;;;;;;5043922;28;20029;-51
2023/02/14 13:51:09;;;;;;;4.93;2.38;;;;;;;;;;5050969;28;20059;-49
2023/02/14 13:53:41;;;;;;;3.20;1.80;;;;;;;;;;5035667;28;20025;-49
2023/02/14 13:56:07;;;;;;;;;;;;;;;;;;5042367;28;20102;-50
2023/02/14 13:58:33;;;;;;;3.67;2.25;;;;;;;;;;5049746;28;19909;-47
2023/02/14 14:01:19;;;;;;;4.05;1.98;;;;;;;;;;5051168;28;20095;-47
2023/02/14 14:03:53;;;;;;;4.15;2.03;;;;;;;;;;5044802;28;20025;-47
2023/02/14 14:06:19;;;;;;;6.00;2.50;;;;;;;;;;5043611;28;20029;-47
2023/02/14 14:08:49;;;;;;;3.70;1.80;;;;;;;;;;5044450;28;20572;-48
2023/02/14 14:11:21;;;;;;;2.55;1.95;;;;;;;;;;5064918;28;20029;-48
2023/02/14 14:13:55;;;;;;;3.35;2.25;;;;;;;;;;5069322;28;20500;-46
2023/02/14 14:16:26;;;;;;;3.85;2.67;;;;;;;;;;5070516;28;20074;-47
2023/02/14 14:18:54;;;;;;;3.97;1.95;;;;;;;;;;5070295;28;20138;-48
2023/02/14 14:21:25;;;;;;;4.25;2.00;;;;;;;;;;5059539;28;20021;-46
2023/02/14 14:24:14;;;;;;;4.18;2.63;;;;;;;;;;5069343;28;20077;-48
2023/02/14 14:26:42;;;;;;;4.00;2.22;;;;;;;;;;5070016;28;20099;-47
2023/02/14 14:29:19;;;;;;;3.30;2.22;;;;;;;;;;5067801;28;20033;-46
2023/02/14 14:31:46;;;;;;;3.40;2.30;;;;;;;;;;5069808;28;20055;-48
2023/02/14 14:34:16;;;;;;;3.20;2.25;;;;;;;;;;5069796;28;20490;-49
2023/02/14 14:36:42;;;;;;;2.75;1.90;;;;;;;;;;5069746;28;20029;-49
2023/02/14 14:39:09;;;;;;;4.40;2.75;;;;;;;;;;5072932;28;20021;-47
2023/02/14 14:41:35;;;;;;;2.65;2.20;;;;;;;;;;5073342;28;20095;-46
2023/02/14 14:44:04;;;;;;;4.18;2.50;;;;;;;;;;5073521;28;20028;-45
2023/02/14 14:46:30;;;;;;;3.67;2.10;;;;;;;;;;5068740;28;20028;-47
2023/02/14 14:48:56;;;;;;;3.72;2.30;;;;;;;;;;5073098;28;20033;-46
2023/02/14 14:51:30;;;;;;;4.00;2.50;;;;;;;;;;5074390;28;20470;-46
2023/02/14 14:54:14;;;;;;;3.22;2.10;;;;;;;;;;5073791;28;20236;-50
2023/02/14 14:57:00;;;;;;;2.53;2.30;;;;;;;;;;5073224;28;20028;-47
2023/02/14 14:59:34;;;;;;;3.20;2.20;;;;;;;;;;5072797;28;20070;-48
2023/02/14 15:02:00;;;;;;;3.25;2.10;;;;;;;;;;5069018;28;20028;-48
2023/02/14 15:04:31;;;;;;;3.08;2.25;;;;;;;;;;5066144;28;20069;-50
2023/02/14 15:06:57;;;;;;;3.78;2.40;;;;;;;;;;5069945;28;20028;-47
2023/02/14 15:09:30;;;;;;;3.50;2.08;;;;;;;;;;5072328;28;20052;-48
2023/02/14 15:14:43;;;;;;;3.35;2.17;;;;;;;;;;5064051;28;20036;-47
2023/02/14 15:17:19;;;;;;;3.38;2.70;;;;;;;;;;5073349;28;20036;-46
2023/02/14 15:19:52;;;;;;;2.67;2.13;;;;;;;;;;5069010;28;20132;-47
2023/02/14 15:22:25;;;;;;;3.65;2.25;;;;;;;;;;5067250;28;20094;-46